createdAt,value
2023-02-11T00:00:11.480Z,10.23
2023-02-11T00:02:38.364Z,10.63
2023-02-11T00:05:06.369Z,11.63
2023-02-11T00:07:34.478Z,15.15
2023-02-11T00:10:02.881Z,15.93
2023-02-11T00:12:29.737Z,18.40
2023-02-11T00:14:56.584Z,16.60
2023-02-11T00:17:23.295Z,11.90
2023-02-11T00:19:51.066Z,10.80
2023-02-11T00:22:18.345Z,8.27
2023-02-11T00:24:45.450Z,8.93
2023-02-11T00:27:12.226Z,7.55
2023-02-11T00:29:39.159Z,7.90
2023-02-11T00:32:06.289Z,7.53
2023-02-11T00:34:34.659Z,6.43
2023-02-11T00:37:01.684Z,7.60
2023-02-11T00:39:28.450Z,7.03
2023-02-11T00:41:55.132Z,6.95
2023-02-11T00:44:22.010Z,7.50
2023-02-11T00:46:48.738Z,7.75
2023-02-11T00:49:15.550Z,11.65
2023-02-11T00:51:42.274Z,15.98
2023-02-11T00:54:09.180Z,18.77
2023-02-11T00:56:36.014Z,21.02
2023-02-11T00:59:02.661Z,12.88
2023-02-11T01:01:29.352Z,9.85
2023-02-11T01:03:56.036Z,7.47
2023-02-11T01:06:22.741Z,5.97
2023-02-11T01:08:49.373Z,6.00
2023-02-11T01:11:19.246Z,5.65
2023-02-11T01:13:47.659Z,4.88
2023-02-11T01:16:14.967Z,5.15
2023-02-11T01:18:44.223Z,5.65
2023-02-11T01:21:35.213Z,5.05
2023-02-11T01:24:01.850Z,5.05
2023-02-11T01:26:28.495Z,4.35
2023-02-11T01:28:55.263Z,4.75
2023-02-11T01:31:21.948Z,5.50
2023-02-11T01:33:49.193Z,5.32
2023-02-11T01:36:15.868Z,5.00
2023-02-11T01:38:44.421Z,4.72
2023-02-11T01:41:14.797Z,5.90
2023-02-11T01:43:47.717Z,5.18
2023-02-11T01:46:23.399Z,4.90
2023-02-11T01:48:59.493Z,9.57
2023-02-11T01:51:39.192Z,9.52
2023-02-11T01:54:26.947Z,7.07
2023-02-11T01:57:15.188Z,6.32
2023-02-11T02:00:04.392Z,5.15
2023-02-11T02:02:40.152Z,5.32
2023-02-11T02:05:34.950Z,5.43
2023-02-11T02:08:32.102Z,5.00
2023-02-11T02:11:00.842Z,6.10
2023-02-11T02:13:29.801Z,5.93
2023-02-11T02:16:02.684Z,5.38
2023-02-11T02:19:06.988Z,5.15
2023-02-11T02:22:07.698Z,5.13
2023-02-11T02:25:00.975Z,4.63
2023-02-11T02:28:06.924Z,3.80
2023-02-11T02:31:12.744Z,5.25
2023-02-11T02:34:03.652Z,4.53
2023-02-11T02:37:13.658Z,4.75
2023-02-11T02:39:45.704Z,4.65
2023-02-11T02:42:14.093Z,4.68
2023-02-11T02:44:40.820Z,4.25
2023-02-11T02:47:07.487Z,4.82
2023-02-11T02:49:34.141Z,4.15
2023-02-11T02:52:14.782Z,4.40
2023-02-11T02:54:53.182Z,5.28
2023-02-11T02:57:45.968Z,5.20
2023-02-11T03:00:30.508Z,5.43
2023-02-11T03:03:13.533Z,5.20
2023-02-11T03:06:12.042Z,4.72
2023-02-11T03:08:44.072Z,5.22
2023-02-11T03:11:11.923Z,4.93
2023-02-11T03:13:40.060Z,6.25
2023-02-11T03:19:13.289Z,5.22
2023-02-11T03:21:42.592Z,3.88
2023-02-11T03:27:18.694Z,4.38
2023-02-11T03:30:05.331Z,4.38
2023-02-11T03:32:47.217Z,4.72
2023-02-11T03:35:25.153Z,4.93
2023-02-11T03:37:55.889Z,3.70
2023-02-11T03:40:26.258Z,3.78
2023-02-11T03:43:00.311Z,4.25
2023-02-11T03:45:28.396Z,3.78
2023-02-11T03:48:10.269Z,3.90
2023-02-11T03:50:38.956Z,3.35
2023-02-11T03:53:06.665Z,3.55
2023-02-11T03:55:37.871Z,3.75
2023-02-11T03:58:04.822Z,3.92
2023-02-11T04:00:39.553Z,3.70
2023-02-11T04:03:07.439Z,3.22
2023-02-11T04:05:34.576Z,3.42
2023-02-11T04:08:01.605Z,3.58
2023-02-11T04:10:28.606Z,3.80
2023-02-11T04:12:55.397Z,3.83
2023-02-11T04:15:22.309Z,3.63
2023-02-11T04:17:48.987Z,4.07
2023-02-11T04:20:15.830Z,3.47
2023-02-11T04:22:42.730Z,3.97
2023-02-11T04:25:10.226Z,3.97
2023-02-11T04:27:37.457Z,3.92
2023-02-11T04:30:05.625Z,3.40
2023-02-11T04:32:32.333Z,3.38
2023-02-11T04:34:59.002Z,3.53
2023-02-11T04:37:34.051Z,4.15
2023-02-11T04:40:07.196Z,3.67
2023-02-11T04:42:43.958Z,3.38
2023-02-11T04:45:10.692Z,3.80
2023-02-11T04:47:38.001Z,3.45
2023-02-11T04:50:10.627Z,3.80
2023-02-11T04:52:37.262Z,3.58
2023-02-11T04:55:04.282Z,4.35
2023-02-11T04:57:33.893Z,3.00
2023-02-11T05:00:00.561Z,4.20
2023-02-11T05:02:27.370Z,4.38
2023-02-11T05:04:54.055Z,5.63
2023-02-11T05:07:20.746Z,5.55
2023-02-11T05:09:47.474Z,4.63
2023-02-11T05:12:15.115Z,3.88
2023-02-11T05:14:41.884Z,3.55
2023-02-11T05:17:15.413Z,3.13
2023-02-11T05:19:44.546Z,3.30
2023-02-11T05:22:23.443Z,3.80
2023-02-11T05:25:08.301Z,3.13
2023-02-11T05:27:35.505Z,3.30
2023-02-11T05:30:02.474Z,3.63
2023-02-11T05:32:29.208Z,2.90
2023-02-11T05:34:55.944Z,2.67
2023-02-11T05:37:29.308Z,2.63
2023-02-11T05:40:05.893Z,3.05
2023-02-11T05:42:32.652Z,3.15
2023-02-11T05:44:59.935Z,2.90
2023-02-11T05:47:45.913Z,3.50
2023-02-11T05:50:12.725Z,3.13
2023-02-11T05:52:39.410Z,3.28
2023-02-11T05:55:06.554Z,3.72
2023-02-11T05:57:33.277Z,4.13
2023-02-11T05:59:59.937Z,3.75
2023-02-11T06:02:26.732Z,4.30
2023-02-11T06:05:15.894Z,5.60
2023-02-11T06:07:42.644Z,7.57
2023-02-11T06:10:10.080Z,7.22
2023-02-11T06:12:42.150Z,6.32
2023-02-11T06:15:08.941Z,5.78
2023-02-11T06:17:36.529Z,4.63
2023-02-11T06:20:22.632Z,5.65
2023-02-11T06:22:49.234Z,5.53
2023-02-11T06:25:18.987Z,5.00
2023-02-11T06:27:45.637Z,5.93
2023-02-11T06:30:12.717Z,5.55
2023-02-11T06:32:58.190Z,5.82
2023-02-11T06:35:24.918Z,4.35
2023-02-11T06:37:53.808Z,4.85
2023-02-11T06:40:30.305Z,4.88
2023-02-11T06:42:56.928Z,4.80
2023-02-11T06:45:23.568Z,6.07
2023-02-11T06:47:51.621Z,5.78
2023-02-11T06:50:18.358Z,5.68
2023-02-11T06:52:45.075Z,6.50
2023-02-11T06:55:11.811Z,6.22
2023-02-11T06:57:43.817Z,7.45
2023-02-11T07:00:11.074Z,5.90
2023-02-11T07:02:37.840Z,5.53
2023-02-11T07:05:12.608Z,4.28
2023-02-11T07:07:39.562Z,3.90
2023-02-11T07:10:06.621Z,3.15
2023-02-11T07:12:33.239Z,3.58
2023-02-11T07:15:00.190Z,3.33
2023-02-11T07:17:26.905Z,3.30
2023-02-11T07:19:53.596Z,3.97
2023-02-11T07:22:20.234Z,3.40
2023-02-11T07:25:00.908Z,2.95
2023-02-11T07:27:38.074Z,3.80
2023-02-11T07:30:07.333Z,3.67
2023-02-11T07:32:34.179Z,3.67
2023-02-11T07:35:07.739Z,4.18
2023-02-11T07:38:00.645Z,2.80
2023-02-11T07:40:27.382Z,4.05
2023-02-11T07:42:54.038Z,3.55
2023-02-11T07:45:20.690Z,4.03
2023-02-11T07:47:47.287Z,4.60
2023-02-11T07:50:25.507Z,4.75
2023-02-11T07:52:52.158Z,6.38
2023-02-11T07:55:18.794Z,6.85
2023-02-11T07:57:45.800Z,7.35
2023-02-11T08:00:13.207Z,6.95
2023-02-11T08:02:50.103Z,5.57
2023-02-11T08:05:16.960Z,4.82
2023-02-11T08:07:43.604Z,6.03
2023-02-11T08:10:10.286Z,5.95
2023-02-11T08:12:36.974Z,4.05
2023-02-11T08:15:14.198Z,4.03
2023-02-11T08:17:40.840Z,6.68
2023-02-11T08:20:07.734Z,5.15
2023-02-11T08:22:35.196Z,4.80
2023-02-11T08:25:01.924Z,4.05
2023-02-11T08:27:43.554Z,5.18
2023-02-11T08:30:16.157Z,4.47
2023-02-11T08:32:42.804Z,4.28
2023-02-11T08:35:12.348Z,3.50
2023-02-11T08:37:54.238Z,3.55
2023-02-11T08:40:20.914Z,3.42
2023-02-11T08:42:47.592Z,2.70
2023-02-11T08:45:18.187Z,3.22
2023-02-11T08:47:44.828Z,2.47
2023-02-11T08:50:11.981Z,2.92
2023-02-11T08:52:38.634Z,3.17
2023-02-11T08:55:05.640Z,2.97
2023-02-11T08:57:36.143Z,3.20
2023-02-11T09:00:03.479Z,2.53
2023-02-11T09:02:30.246Z,2.88
2023-02-11T09:05:01.066Z,2.63
2023-02-11T09:07:28.766Z,2.65
2023-02-11T09:09:55.491Z,2.85
2023-02-11T09:12:22.324Z,2.97
2023-02-11T09:14:49.042Z,3.03
2023-02-11T09:17:15.730Z,3.75
2023-02-11T09:19:42.512Z,3.70
2023-02-11T09:22:09.745Z,3.55
2023-02-11T09:24:36.604Z,2.92
2023-02-11T09:27:03.433Z,2.75
2023-02-11T09:29:30.147Z,2.72
2023-02-11T09:31:56.995Z,2.38
2023-02-11T09:34:23.819Z,2.25
2023-02-11T09:36:50.579Z,2.45
2023-02-11T09:39:19.720Z,2.50
2023-02-11T09:41:49.552Z,2.47
2023-02-11T09:44:23.229Z,2.05
2023-02-11T09:46:56.499Z,2.42
2023-02-11T09:49:32.612Z,2.60
2023-02-11T09:52:06.051Z,2.60
2023-02-11T09:54:57.467Z,3.17
2023-02-11T09:57:32.880Z,2.10
2023-02-11T10:00:01.194Z,3.08
2023-02-11T10:02:56.549Z,11.30
2023-02-11T10:05:57.295Z,6.07
2023-02-11T10:08:33.339Z,3.03
2023-02-11T10:11:29.829Z,3.47
2023-02-11T10:14:15.886Z,4.18
2023-02-11T10:16:59.934Z,4.15
2023-02-11T10:19:34.024Z,4.65
2023-02-11T10:22:11.899Z,3.80
2023-02-11T10:24:40.747Z,4.75
2023-02-11T10:27:35.751Z,4.93
2023-02-11T10:30:31.228Z,6.05
2023-02-11T10:33:26.975Z,6.18
2023-02-11T10:35:53.970Z,5.60
2023-02-11T10:38:20.763Z,5.07
2023-02-11T10:40:47.595Z,5.25
2023-02-11T10:43:16.305Z,5.07
2023-02-11T10:45:44.726Z,5.07
2023-02-11T10:48:37.817Z,5.60
2023-02-11T10:51:25.036Z,4.70
2023-02-11T10:54:19.374Z,6.32
2023-02-11T10:56:52.120Z,5.15
2023-02-11T10:59:31.349Z,5.60
2023-02-11T11:02:01.184Z,5.30
2023-02-11T11:04:30.851Z,5.72
2023-02-11T11:07:11.455Z,5.03
2023-02-11T11:09:53.444Z,5.57
2023-02-11T11:12:27.625Z,6.13
2023-02-11T11:15:00.389Z,6.07
2023-02-11T11:17:33.124Z,5.80
2023-02-11T11:20:24.586Z,6.90
2023-02-11T11:22:57.484Z,7.15
2023-02-11T11:25:27.860Z,6.32
2023-02-11T11:28:01.718Z,6.65
2023-02-11T11:30:38.588Z,7.38
2023-02-11T11:33:16.008Z,7.97
2023-02-11T11:35:58.988Z,7.90
2023-02-11T11:38:34.423Z,7.57
2023-02-11T11:41:18.215Z,7.47
2023-02-11T11:43:59.465Z,17.90
2023-02-11T11:46:33.256Z,8.82
2023-02-11T11:49:29.386Z,8.40
2023-02-11T11:52:18.099Z,7.63
2023-02-11T11:54:55.575Z,7.78
2023-02-11T11:57:27.067Z,8.13
2023-02-11T11:59:53.786Z,8.63
2023-02-11T12:02:26.680Z,10.10
2023-02-11T12:05:02.724Z,10.30
2023-02-11T12:07:35.362Z,9.52
2023-02-11T12:10:14.352Z,7.97
2023-02-11T12:13:14.242Z,8.95
2023-02-11T12:16:14.103Z,9.30
2023-02-11T12:19:05.634Z,9.40
2023-02-11T12:22:02.013Z,8.13
2023-02-11T12:25:03.996Z,9.40
2023-02-11T12:28:00.498Z,9.97
2023-02-11T12:30:58.117Z,9.27
2023-02-11T12:33:52.606Z,11.00
2023-02-11T12:36:34.481Z,10.70
2023-02-11T12:39:15.824Z,10.90
2023-02-11T12:42:28.567Z,10.18
2023-02-11T12:45:14.207Z,9.95
2023-02-11T12:48:05.576Z,10.77
2023-02-11T12:50:41.402Z,9.85
2023-02-11T12:53:16.969Z,11.13
2023-02-11T12:55:47.454Z,10.43
2023-02-11T12:58:29.656Z,10.27
2023-02-11T13:01:21.323Z,10.77
2023-02-11T13:03:59.864Z,11.13
2023-02-11T13:06:35.956Z,10.55
2023-02-11T13:09:05.705Z,13.27
2023-02-11T13:11:43.068Z,13.45
2023-02-11T13:14:25.453Z,11.77
2023-02-11T13:16:54.180Z,13.13
2023-02-11T13:19:46.676Z,11.15
2023-02-11T13:22:43.186Z,10.35
2023-02-11T13:25:21.534Z,11.65
2023-02-11T13:28:20.555Z,12.63
2023-02-11T13:30:57.313Z,11.43
2023-02-11T13:33:39.589Z,12.55
2023-02-11T13:39:20.765Z,14.85
2023-02-11T13:41:55.815Z,11.52
2023-02-11T13:44:25.511Z,12.02
2023-02-11T13:47:02.214Z,12.02
2023-02-11T13:49:49.290Z,10.93
2023-02-11T13:52:26.732Z,12.07
2023-02-11T13:54:56.603Z,10.80
2023-02-11T13:57:30.226Z,10.77
2023-02-11T14:00:10.613Z,11.85
2023-02-11T14:03:22.495Z,10.07
2023-02-11T14:06:27.642Z,10.50
2023-02-11T14:09:11.535Z,10.05
2023-02-11T14:11:41.487Z,12.98
2023-02-11T14:14:19.977Z,10.25
2023-02-11T14:17:11.547Z,10.10
2023-02-11T14:19:46.972Z,10.35
2023-02-11T14:22:34.201Z,10.38
2023-02-11T14:25:05.904Z,10.80
2023-02-11T14:27:47.457Z,11.02
2023-02-11T14:30:32.507Z,10.57
2023-02-11T14:33:39.112Z,11.35
2023-02-11T14:36:31.850Z,10.75
2023-02-11T14:41:38.585Z,11.30
2023-02-11T14:44:11.063Z,10.88
2023-02-11T14:46:37.923Z,10.82
2023-02-11T14:49:26.430Z,10.05
2023-02-11T14:51:58.056Z,12.65
2023-02-11T14:54:27.483Z,11.95
2023-02-11T14:57:16.826Z,11.32
2023-02-11T15:00:02.771Z,12.77
2023-02-11T15:02:34.666Z,12.70
2023-02-11T15:05:29.684Z,11.85
2023-02-11T15:07:59.806Z,11.68
2023-02-11T15:10:37.761Z,12.48
2023-02-11T15:13:05.688Z,12.88
2023-02-11T15:15:34.583Z,12.80
2023-02-11T15:18:05.092Z,12.95
2023-02-11T15:20:33.532Z,11.23
2023-02-11T15:23:03.980Z,11.02
2023-02-11T15:25:33.780Z,11.15
2023-02-11T15:28:24.508Z,12.65
2023-02-11T15:31:06.028Z,12.45
2023-02-11T15:33:33.150Z,11.93
2023-02-11T15:36:01.769Z,13.02
2023-02-11T15:38:30.181Z,13.60
2023-02-11T15:41:02.660Z,13.05
2023-02-11T15:43:42.807Z,13.73
2023-02-11T15:46:12.666Z,12.43
2023-02-11T15:48:48.555Z,13.60
2023-02-11T15:51:28.644Z,14.13
2023-02-11T15:54:08.669Z,14.18
2023-02-11T15:56:43.321Z,14.68
2023-02-11T15:59:33.153Z,14.43
2023-02-11T16:02:29.045Z,13.82
2023-02-11T16:05:03.693Z,13.80
2023-02-11T16:07:47.037Z,13.98
2023-02-11T16:10:33.305Z,14.68
2023-02-11T16:13:16.331Z,13.93
2023-02-11T16:15:46.596Z,14.88
2023-02-11T16:18:37.391Z,15.07
2023-02-11T16:21:15.822Z,15.02
2023-02-11T16:23:43.740Z,15.45
2023-02-11T16:26:21.815Z,16.00
2023-02-11T16:28:48.850Z,15.15
2023-02-11T16:31:15.783Z,15.90
2023-02-11T16:33:42.442Z,15.45
2023-02-11T16:36:13.896Z,16.23
2023-02-11T16:38:40.739Z,16.33
2023-02-11T16:41:07.446Z,16.70
2023-02-11T16:43:34.270Z,16.90
2023-02-11T16:46:00.986Z,16.10
2023-02-11T16:48:27.592Z,16.52
2023-02-11T16:50:54.621Z,16.38
2023-02-11T16:53:23.995Z,18.50
2023-02-11T16:55:51.975Z,16.50
2023-02-11T16:58:19.736Z,17.05
2023-02-11T17:00:48.177Z,19.02
2023-02-11T17:03:23.382Z,17.60
2023-02-11T17:05:55.653Z,16.45
2023-02-11T17:08:22.820Z,16.55
2023-02-11T17:10:50.046Z,18.63
2023-02-11T17:13:17.053Z,17.67
2023-02-11T17:15:43.827Z,17.88
2023-02-11T17:18:13.563Z,17.38
2023-02-11T17:20:41.566Z,18.75
2023-02-11T17:23:08.378Z,19.13
2023-02-11T17:25:37.388Z,17.33
2023-02-11T17:28:05.576Z,18.05
2023-02-11T17:30:32.701Z,18.45
2023-02-11T17:32:59.472Z,17.83
2023-02-11T17:35:26.500Z,18.42
2023-02-11T17:37:53.970Z,18.02
2023-02-11T17:40:20.898Z,18.65
2023-02-11T17:42:47.657Z,18.90
2023-02-11T17:45:14.347Z,18.35
2023-02-11T17:47:41.149Z,18.38
2023-02-11T17:50:08.579Z,18.35
2023-02-11T17:52:36.707Z,20.20
2023-02-11T17:55:04.113Z,20.67
2023-02-11T17:57:31.221Z,22.70
2023-02-11T17:59:58.168Z,21.40
2023-02-11T18:02:24.949Z,24.55
2023-02-11T18:04:52.468Z,22.17
2023-02-11T18:07:20.076Z,18.70
2023-02-11T18:09:46.839Z,19.73
2023-02-11T18:12:13.624Z,18.75
2023-02-11T18:14:40.975Z,20.83
2023-02-11T18:17:07.791Z,22.02
2023-02-11T18:19:36.670Z,21.38
2023-02-11T18:22:04.305Z,21.30
2023-02-11T18:24:31.544Z,22.13
2023-02-11T18:26:58.408Z,21.90
2023-02-11T18:29:25.286Z,22.40
2023-02-11T18:31:55.178Z,24.95
2023-02-11T18:34:26.269Z,26.70
2023-02-11T18:36:53.105Z,29.58
2023-02-11T18:39:20.087Z,29.45
2023-02-11T18:41:47.094Z,35.65
2023-02-11T18:44:14.240Z,26.70
2023-02-11T18:46:41.215Z,26.40
2023-02-11T18:49:09.834Z,24.23
2023-02-11T18:51:36.531Z,22.50
2023-02-11T18:54:03.326Z,19.80
2023-02-11T18:56:30.033Z,20.98
2023-02-11T18:58:58.000Z,19.52
2023-02-11T19:01:29.851Z,21.20
2023-02-11T19:03:58.603Z,19.90
2023-02-11T19:06:27.769Z,21.80
2023-02-11T19:08:59.023Z,25.95
2023-02-11T19:11:58.547Z,43.10
2023-02-11T19:14:27.843Z,44.30
2023-02-11T19:16:57.248Z,48.75
2023-02-11T19:19:27.846Z,50.50
2023-02-11T19:21:55.274Z,53.92
2023-02-11T19:24:23.380Z,37.53
2023-02-11T19:26:51.760Z,30.70
2023-02-11T19:29:19.023Z,38.92
2023-02-11T19:31:46.368Z,29.20
2023-02-11T19:34:17.568Z,26.48
2023-02-11T19:36:44.271Z,24.77
2023-02-11T19:39:15.299Z,21.58
2023-02-11T19:41:42.677Z,21.38
2023-02-11T19:44:09.542Z,20.80
2023-02-11T19:46:38.725Z,21.17
2023-02-11T19:49:05.858Z,21.27
2023-02-11T19:51:38.999Z,20.90
2023-02-11T19:54:06.997Z,22.67
2023-02-11T19:56:34.526Z,23.05
2023-02-11T19:59:03.106Z,23.98
2023-02-11T20:01:29.854Z,23.10
2023-02-11T20:03:57.676Z,22.40
2023-02-11T20:06:30.318Z,21.13
2023-02-11T20:09:00.246Z,21.70
2023-02-11T20:11:29.391Z,21.80
2023-02-11T20:13:56.510Z,21.20
2023-02-11T20:16:44.661Z,22.13
2023-02-11T20:19:17.860Z,24.13
2023-02-11T20:21:50.836Z,23.92
2023-02-11T20:24:18.403Z,22.80
2023-02-11T20:26:48.527Z,21.40
2023-02-11T20:29:18.660Z,22.65
2023-02-11T20:31:45.671Z,24.98
2023-02-11T20:34:12.705Z,22.40
2023-02-11T20:36:40.448Z,25.40
2023-02-11T20:39:07.995Z,26.77
2023-02-11T20:41:38.676Z,28.95
2023-02-11T20:44:08.476Z,27.38
2023-02-11T20:46:38.518Z,23.80
2023-02-11T20:49:05.897Z,24.13
2023-02-11T20:51:33.991Z,22.85
2023-02-11T20:54:01.078Z,23.08
2023-02-11T20:56:31.092Z,24.60
2023-02-11T20:59:02.146Z,23.42
2023-02-11T21:01:37.912Z,22.05
2023-02-11T21:04:08.471Z,23.58
2023-02-11T21:06:38.665Z,22.88
2023-02-11T21:09:08.391Z,23.88
2023-02-11T21:11:35.339Z,25.83
2023-02-11T21:14:03.036Z,27.15
2023-02-11T21:16:29.895Z,25.42
2023-02-11T21:18:57.913Z,22.95
2023-02-11T21:21:24.749Z,21.70
2023-02-11T21:23:51.576Z,23.52
2023-02-11T21:26:18.639Z,23.58
2023-02-11T21:28:45.582Z,21.92
2023-02-11T21:31:27.729Z,23.98
2023-02-11T21:33:55.466Z,23.55
2023-02-11T21:36:26.147Z,23.83
2023-02-11T21:38:52.959Z,23.17
2023-02-11T21:41:24.841Z,25.30
2023-02-11T21:43:52.358Z,24.85
2023-02-11T21:46:20.419Z,23.67
2023-02-11T21:48:47.913Z,23.45
2023-02-11T21:51:18.117Z,21.65
2023-02-11T21:53:45.121Z,28.20
2023-02-11T21:56:14.687Z,31.23
2023-02-11T21:58:42.072Z,26.15
2023-02-11T22:01:14.366Z,25.50
2023-02-11T22:06:16.871Z,21.65
2023-02-11T22:08:43.970Z,21.88
2023-02-11T22:11:12.586Z,19.30
2023-02-11T22:13:40.451Z,17.60
2023-02-11T22:16:10.456Z,18.20
2023-02-11T22:18:37.631Z,17.58
2023-02-11T22:21:10.524Z,17.38
2023-02-11T22:23:38.240Z,18.95
2023-02-11T22:26:11.336Z,20.05
2023-02-11T22:28:40.376Z,17.92
2023-02-11T22:31:11.059Z,16.70
2023-02-11T22:33:37.759Z,16.38
2023-02-11T22:36:07.673Z,17.63
2023-02-11T22:38:35.216Z,16.58
2023-02-11T22:41:06.997Z,16.70
2023-02-11T22:43:33.980Z,16.60
2023-02-11T22:46:01.972Z,13.85
2023-02-11T22:48:31.855Z,14.18
2023-02-11T22:51:07.502Z,13.85
2023-02-11T22:53:34.736Z,13.65
2023-02-11T22:56:07.154Z,14.02
2023-02-11T22:58:35.377Z,13.02
2023-02-11T23:01:02.656Z,12.98
2023-02-11T23:03:29.447Z,12.60
2023-02-11T23:05:58.424Z,12.00
2023-02-11T23:08:25.994Z,11.05
2023-02-11T23:10:52.813Z,11.75
2023-02-11T23:13:19.571Z,12.27
2023-02-11T23:15:47.108Z,13.25
2023-02-11T23:18:14.653Z,14.68
2023-02-11T23:20:43.510Z,14.45
2023-02-11T23:23:10.339Z,14.90
2023-02-11T23:25:42.809Z,14.73
2023-02-11T23:28:11.403Z,15.85
2023-02-11T23:30:41.566Z,14.93
2023-02-11T23:33:08.412Z,15.32
2023-02-11T23:35:35.488Z,16.33
2023-02-11T23:38:02.354Z,15.35
2023-02-11T23:40:29.159Z,15.30
2023-02-11T23:42:55.935Z,15.50
2023-02-11T23:45:22.841Z,16.10
2023-02-11T23:47:49.742Z,16.33
2023-02-11T23:50:16.870Z,16.17
2023-02-11T23:52:44.873Z,17.38
2023-02-11T23:55:11.653Z,15.40
2023-02-11T23:57:38.271Z,15.95
